createdAt,value
2023-01-28T00:01:17.840Z,101758.09
2023-01-28T00:03:44.482Z,101761.56
2023-01-28T00:06:15.274Z,101760.84
2023-01-28T00:08:42.259Z,101763.81
2023-01-28T00:11:11.386Z,101759.31
2023-01-28T00:13:38.223Z,101756.81
2023-01-28T00:16:06.268Z,101757.03
2023-01-28T00:18:33.068Z,101761.09
2023-01-28T00:21:04.538Z,101753.66
2023-01-28T00:23:36.576Z,101760.84
2023-01-28T00:26:06.312Z,101750.78
2023-01-28T00:28:33.149Z,101738.59
2023-01-28T00:30:59.804Z,101744.19
2023-01-28T00:33:26.404Z,101743.81
2023-01-28T00:36:03.671Z,101752.16
2023-01-28T00:38:30.300Z,101749.41
2023-01-28T00:40:56.860Z,101741.41
2023-01-28T00:43:23.386Z,101747.06
2023-01-28T00:45:50.420Z,101755.03
2023-01-28T00:48:17.285Z,101751.56
2023-01-28T00:50:45.680Z,101756.88
2023-01-28T00:53:12.325Z,101758.69
2023-01-28T00:55:39.042Z,101763.19
2023-01-28T00:58:05.641Z,101763.25
2023-01-28T01:00:32.233Z,101763.03
2023-01-28T01:02:59.581Z,101764.97
2023-01-28T01:05:26.162Z,101763.34
2023-01-28T01:07:52.877Z,101760.69
2023-01-28T01:10:19.932Z,101761.66
2023-01-28T01:12:48.288Z,101768.66
2023-01-28T01:15:15.755Z,101769.47
2023-01-28T01:17:44.645Z,101764.16
2023-01-28T01:20:17.340Z,101772.53
2023-01-28T01:22:43.881Z,101774.66
2023-01-28T01:25:11.646Z,101779.81
2023-01-28T01:27:38.236Z,101778.16
2023-01-28T01:30:05.298Z,101772.84
2023-01-28T01:32:32.821Z,101773.13
2023-01-28T01:34:59.388Z,101764.31
2023-01-28T01:37:25.960Z,101766.97
2023-01-28T01:39:52.678Z,101761.81
2023-01-28T01:42:19.558Z,101765.44
2023-01-28T01:45:00.251Z,101765.84
2023-01-28T01:47:35.698Z,101778.53
2023-01-28T01:50:10.671Z,101779.34
2023-01-28T01:52:37.286Z,101772.09
2023-01-28T01:55:09.472Z,101767.63
2023-01-28T01:57:37.449Z,101777.06
2023-01-28T02:00:06.663Z,101771.84
2023-01-28T02:02:38.438Z,101773.69
2023-01-28T02:05:07.067Z,101778.56
2023-01-28T02:07:34.371Z,101769.06
2023-01-28T02:10:00.923Z,101777.19
2023-01-28T02:12:33.846Z,101778.56
2023-01-28T02:15:05.400Z,101777.91
2023-01-28T02:17:32.431Z,101783.66
2023-01-28T02:20:06.234Z,101782.38
2023-01-28T02:22:44.991Z,101783.34
2023-01-28T02:25:38.982Z,101779.72
2023-01-28T02:28:17.632Z,101785.34
2023-01-28T02:30:59.861Z,101785.19
2023-01-28T02:33:51.419Z,101776.91
2023-01-28T02:36:28.603Z,101780.59
2023-01-28T02:38:57.695Z,101785.09
2023-01-28T02:41:31.652Z,101782.28
2023-01-28T02:43:58.189Z,101773.91
2023-01-28T02:46:46.446Z,101781.44
2023-01-28T02:49:21.714Z,101781.44
2023-01-28T02:52:47.177Z,101786.16
2023-01-28T02:55:42.848Z,101784.78
2023-01-28T02:58:09.284Z,101773.06
2023-01-28T03:00:47.868Z,101783.09
2023-01-28T03:03:21.715Z,101785.09
2023-01-28T03:06:09.159Z,101781.84
2023-01-28T03:09:11.716Z,101782.81
2023-01-28T03:12:02.336Z,101772.09
2023-01-28T03:14:51.271Z,101777.41
2023-01-28T03:17:44.710Z,101775.44
2023-01-28T03:20:31.351Z,101770.56
2023-01-28T03:23:22.160Z,101768.56
2023-01-28T03:26:08.876Z,101782.03
2023-01-28T03:28:56.542Z,101769.69
2023-01-28T03:31:42.987Z,101773.06
2023-01-28T03:34:30.321Z,101771.22
2023-01-28T03:36:57.145Z,101774.75
2023-01-28T03:39:28.326Z,101771.72
2023-01-28T03:42:00.781Z,101774.84
2023-01-28T03:44:45.918Z,101770.09
2023-01-28T03:47:12.585Z,101772.91
2023-01-28T03:49:41.306Z,101765.59
2023-01-28T03:52:08.560Z,101776.41
2023-01-28T03:54:35.504Z,101767.44
2023-01-28T03:57:02.565Z,101766.47
2023-01-28T03:59:29.214Z,101770.81
2023-01-28T04:01:55.872Z,101770.81
2023-01-28T04:04:25.745Z,101776.66
2023-01-28T04:06:53.060Z,101770.66
2023-01-28T04:09:20.716Z,101768.81
2023-01-28T04:11:48.130Z,101774.16
2023-01-28T04:14:15.298Z,101777.78
2023-01-28T04:16:42.784Z,101779.47
2023-01-28T04:19:09.953Z,101783.97
2023-01-28T04:21:36.486Z,101786.78
2023-01-28T04:24:03.026Z,101793.75
2023-01-28T17:27:03.068Z,101890.44
2023-01-28T17:29:29.870Z,101900.81
2023-01-28T17:31:56.325Z,101904.28
2023-01-28T17:34:23.041Z,101912.00
2023-01-28T17:36:49.488Z,101915.47
2023-01-28T17:39:18.503Z,101901.09
2023-01-28T17:41:47.621Z,101914.94
2023-01-28T17:44:17.116Z,101905.28
2023-01-28T17:46:43.605Z,101888.25
2023-01-28T17:49:10.068Z,101906.13
2023-01-28T17:51:36.813Z,101895.78
2023-01-28T17:54:03.425Z,101897.72
2023-01-28T17:56:31.217Z,101892.69
2023-01-28T17:59:02.640Z,101894.66
2023-01-28T18:01:30.153Z,101893.53
2023-01-28T18:03:58.035Z,101905.25
2023-01-28T18:06:24.760Z,101896.03
2023-01-28T18:08:51.313Z,101892.66
2023-01-28T18:11:19.511Z,101893.78
2023-01-28T18:13:46.052Z,101897.84
2023-01-28T18:16:17.235Z,101904.97
2023-01-28T18:18:45.048Z,101917.81
2023-01-28T18:21:22.731Z,101927.03
2023-01-28T18:23:52.172Z,101918.91
2023-01-28T18:26:18.785Z,101914.16
2023-01-28T18:28:45.267Z,101921.41
2023-01-28T18:31:11.887Z,101923.34
2023-01-28T18:33:38.380Z,101918.31
2023-01-28T18:36:06.191Z,101925.56
2023-01-28T18:38:33.115Z,101937.44
2023-01-28T18:40:59.575Z,101929.75
2023-01-28T18:43:26.497Z,101930.72
2023-01-28T18:45:53.015Z,101941.72
2023-01-28T18:48:19.949Z,101941.16
2023-01-28T18:50:51.179Z,101936.81
2023-01-28T18:53:17.635Z,101931.34
2023-01-28T18:55:44.834Z,101927.28
2023-01-28T18:58:11.287Z,101932.97
2023-01-28T19:00:38.542Z,101929.44
2023-01-28T19:03:05.128Z,101930.72
2023-01-28T19:05:36.194Z,101940.63
2023-01-28T19:11:02.582Z,101934.81
2023-01-28T19:13:29.583Z,101941.50
2023-01-28T19:15:56.267Z,101938.81
2023-01-28T19:18:22.887Z,101945.38
2023-01-28T19:20:49.375Z,101946.63
2023-01-28T19:23:15.925Z,101942.66
2023-01-28T19:25:42.487Z,101951.69
2023-01-28T19:28:09.205Z,101943.06
2023-01-28T19:30:36.853Z,101951.25
2023-01-28T19:33:04.488Z,101941.88
2023-01-28T19:35:31.048Z,101951.78
2023-01-28T19:37:57.532Z,101949.41
2023-01-28T19:40:24.024Z,101958.31
2023-01-28T19:42:53.105Z,101946.97
2023-01-28T19:45:20.339Z,101947.53
2023-01-28T19:47:47.097Z,101943.31
2023-01-28T19:50:14.269Z,101942.72
2023-01-28T19:52:40.766Z,101943.94
2023-01-28T19:55:08.085Z,101951.16
2023-01-28T19:57:34.637Z,101946.13
2023-01-28T20:00:01.170Z,101947.09
2023-01-28T20:02:28.010Z,101934.81
2023-01-28T20:05:00.574Z,101930.53
2023-01-28T20:07:27.470Z,101930.50
2023-01-28T20:09:53.934Z,101919.31
2023-01-28T20:12:20.435Z,101924.75
2023-01-28T20:14:47.051Z,101912.59
2023-01-28T20:17:13.502Z,101913.56
2023-01-28T20:19:40.130Z,101912.00
2023-01-28T20:22:06.630Z,101906.81
2023-01-28T20:24:33.151Z,101905.13
2023-01-28T20:26:59.915Z,101905.28
2023-01-28T20:29:26.364Z,101903.84
2023-01-28T20:32:13.745Z,101904.81
2023-01-28T20:34:42.398Z,101897.13
2023-01-28T20:37:11.788Z,101899.06
2023-01-28T20:39:38.347Z,101894.00
2023-01-28T20:42:06.346Z,101894.00
2023-01-28T20:44:32.855Z,101892.59
2023-01-28T20:46:59.330Z,101888.97
2023-01-28T20:49:28.121Z,101897.06
2023-01-28T20:51:54.856Z,101887.56
2023-01-28T20:54:21.571Z,101901.75
2023-01-28T20:56:52.845Z,101889.22
2023-01-28T20:59:19.490Z,101900.31
2023-01-28T21:01:46.542Z,101898.63
2023-01-28T21:04:13.373Z,101905.84
2023-01-28T21:06:42.727Z,101904.94
2023-01-28T21:09:09.693Z,101902.25
2023-01-28T21:11:36.170Z,101900.81
2023-01-28T21:14:02.651Z,101905.28
2023-01-28T21:16:29.134Z,101900.13
2023-01-28T21:18:55.637Z,101896.75
2023-01-28T21:21:25.363Z,101899.38
2023-01-28T21:23:54.744Z,101892.66
2023-01-28T21:26:21.758Z,101897.13
2023-01-28T21:28:48.395Z,101892.06
2023-01-28T21:31:17.983Z,101889.41
2023-01-28T21:33:51.740Z,101876.19
2023-01-28T21:36:19.335Z,101881.13
2023-01-28T21:38:51.253Z,101875.59
2023-01-28T21:41:17.712Z,101881.28
2023-01-28T21:43:44.249Z,101874.41
2023-01-28T21:46:10.759Z,101879.72
2023-01-28T21:48:37.243Z,101885.13
2023-01-28T21:51:26.289Z,101879.09
2023-01-28T21:53:53.212Z,101885.50
2023-01-28T21:56:19.705Z,101882.97
2023-01-28T21:59:04.926Z,101885.75
2023-01-28T22:01:31.416Z,101898.28
2023-01-28T22:03:58.091Z,101898.50
2023-01-28T22:06:24.662Z,101888.78
2023-01-28T22:08:54.217Z,101892.13
2023-01-28T22:11:21.170Z,101894.16
2023-01-28T22:13:48.184Z,101898.75
2023-01-28T22:16:14.751Z,101898.75
2023-01-28T22:18:41.313Z,101888.16
2023-01-28T22:21:11.067Z,101890.81
2023-01-28T22:23:37.514Z,101892.03
2023-01-28T22:26:04.059Z,101892.72
2023-01-28T22:28:31.084Z,101894.69
2023-01-28T22:31:15.987Z,101888.16
2023-01-28T22:33:43.101Z,101893.94
2023-01-28T22:36:13.960Z,101888.53
2023-01-28T22:38:42.668Z,101884.31
2023-01-28T22:41:12.300Z,101890.59
2023-01-28T22:43:39.296Z,101889.88
2023-01-28T22:46:06.184Z,101882.88
2023-01-28T22:48:36.052Z,101887.09
2023-01-28T22:51:04.805Z,101884.56
2023-01-28T22:53:31.323Z,101868.00
2023-01-28T22:55:57.966Z,101870.53
2023-01-28T22:58:24.690Z,101874.00
2023-01-28T23:00:51.199Z,101871.34
2023-01-28T23:03:17.682Z,101865.22
2023-01-28T23:05:44.870Z,101866.91
2023-01-28T23:08:11.442Z,101857.16
2023-01-28T23:10:50.863Z,101867.97
2023-01-28T23:13:20.038Z,101860.50
2023-01-28T23:16:06.844Z,101860.75
2023-01-28T23:18:52.427Z,101869.44
2023-01-28T23:21:40.052Z,101865.81
2023-01-28T23:24:21.620Z,101868.91
2023-01-28T23:26:53.686Z,101861.97
2023-01-28T23:29:23.801Z,101866.66
2023-01-28T23:31:54.023Z,101850.66
2023-01-28T23:34:21.475Z,101849.84
2023-01-28T23:36:48.980Z,101844.53
2023-01-28T23:39:15.668Z,101848.03
2023-01-28T23:41:42.234Z,101839.13
2023-01-28T23:44:08.787Z,101843.47
2023-01-28T23:46:39.698Z,101853.06
2023-01-28T23:49:08.817Z,101849.44
2023-01-28T23:51:35.605Z,101844.16
2023-01-28T23:54:02.171Z,101844.09
2023-01-28T23:56:28.739Z,101835.97
2023-01-28T23:58:56.951Z,101830.81
